Time;durP1;ratioP1;P1;durP2;ratioP2;P2;SDS_P1;SDS_P2;PMS_P1;PMS_P2;Temp;Humidity;BMP_temperature;BMP_pressure;BME280_temperature;BME280_humidity;BME280_pressure;Samples;Min_cycle;Max_cycle;Signal;HPM_P1;HPM_P2
2021/04/24 00:02:01;;;;;;;2.83;1.12;;;8.80;36.50;;;;;;2188003;58;20955;-80
2021/04/24 00:04:28;;;;;;;2.40;1.00;;;8.70;36.50;;;;;;2188500;58;22422;-80
2021/04/24 00:06:54;;;;;;;4.80;1.40;;;8.70;36.50;;;;;;2401647;57;20934;-80
2021/04/24 00:09:20;;;;;;;2.58;1.30;;;8.70;36.60;;;;;;2191257;58;21543;-80
2021/04/24 00:11:46;;;;;;;3.33;1.37;;;8.60;36.70;;;;;;2401391;57;20986;-80
2021/04/24 00:14:13;;;;;;;3.42;1.60;;;8.60;36.80;;;;;;2401636;57;20954;-80
2021/04/24 00:16:39;;;;;;;4.50;2.00;;;8.60;36.90;;;;;;2187915;58;20966;-80
2021/04/24 00:19:05;;;;;;;5.47;1.70;;;8.50;36.90;;;;;;2402251;57;21026;-80
2021/04/24 00:21:32;;;;;;;2.90;1.50;;;8.50;36.90;;;;;;2401504;57;21014;-80
2021/04/24 00:23:58;;;;;;;3.15;1.48;;;8.50;36.90;;;;;;2188802;58;20986;-80
2021/04/24 00:26:25;;;;;;;5.07;1.45;;;8.40;37.00;;;;;;2401449;57;21052;-80
2021/04/24 00:28:52;;;;;;;2.87;1.33;;;8.40;37.10;;;;;;2188110;58;20962;-80
2021/04/24 00:31:18;;;;;;;3.37;1.45;;;8.40;37.10;;;;;;2402418;57;20987;-80
2021/04/24 00:33:44;;;;;;;2.72;1.27;;;8.30;37.20;;;;;;2401803;57;20993;-80
2021/04/24 00:36:11;;;;;;;2.37;0.95;;;8.30;37.30;;;;;;2188178;58;21005;-80
2021/04/24 00:38:37;;;;;;;2.78;1.23;;;8.30;37.30;;;;;;2402139;57;20974;-79
2021/04/24 00:41:03;;;;;;;3.72;1.48;;;8.20;37.40;;;;;;2191525;58;21031;-80
2021/04/24 00:43:29;;;;;;;4.32;1.33;;;8.20;37.50;;;;;;2187780;58;20972;-80
2021/04/24 00:45:56;;;;;;;3.10;1.20;;;7.90;37.30;;;;;;2189529;58;21032;-80
2021/04/24 00:48:22;;;;;;;3.97;1.37;;;8.10;37.50;;;;;;2190771;58;21031;-80
2021/04/24 00:50:48;;;;;;;3.87;1.48;;;8.10;37.60;;;;;;2400876;57;21027;-80
2021/04/24 00:53:14;;;;;;;2.42;0.90;;;8.10;37.60;;;;;;2401314;57;20962;-80
2021/04/24 00:55:41;;;;;;;3.05;1.37;;;8.00;37.50;;;;;;2401734;57;20971;-80
2021/04/24 00:58:12;;;;;;;2.87;1.12;;;8.00;37.60;;;;;;2171583;58;21010;-80
2021/04/24 01:00:38;;;;;;;3.17;1.37;;;8.00;37.70;;;;;;2191745;58;20972;-80
2021/04/24 01:03:05;;;;;;;3.28;1.27;;;7.90;37.70;;;;;;2400656;57;20966;-80
2021/04/24 01:05:33;;;;;;;2.95;1.35;;;7.90;37.70;;;;;;2401506;57;21534;-80
2021/04/24 01:07:59;;;;;;;3.25;1.23;;;7.90;37.80;;;;;;2400103;57;21006;-80
2021/04/24 01:10:27;;;;;;;4.45;1.30;;;7.80;37.80;;;;;;2401314;57;21030;-80
2021/04/24 01:12:53;;;;;;;2.47;1.10;;;7.80;38.10;;;;;;2401847;57;21446;-80
2021/04/24 01:15:20;;;;;;;2.75;1.12;;;7.80;38.10;;;;;;2188264;58;20990;-79
2021/04/24 01:17:46;;;;;;;4.35;1.33;;;7.70;38.10;;;;;;2190785;58;21540;-80
2021/04/24 01:20:13;;;;;;;2.87;1.20;;;7.70;38.70;;;;;;2401376;57;20943;-80
2021/04/24 01:22:43;;;;;;;3.30;1.33;;;7.70;38.20;;;;;;2171535;58;20978;-80
2021/04/24 01:25:11;;;;;;;4.15;1.70;;;7.70;38.30;;;;;;2402461;57;21529;-80
2021/04/24 01:27:37;;;;;;;3.62;1.10;;;7.60;38.20;;;;;;2191712;58;21031;-80
2021/04/24 01:30:06;;;;;;;3.72;1.02;;;7.60;38.30;;;;;;2186798;58;20994;-79
2021/04/24 01:32:32;;;;;;;6.30;1.60;;;7.60;38.50;;;;;;2401835;57;21931;-80
2021/04/24 01:34:59;;;;;;;2.90;1.20;;;7.50;38.40;;;;;;2187709;58;20978;-80
2021/04/24 01:37:25;;;;;;;2.92;1.10;;;7.50;38.60;;;;;;2401392;57;20981;-80
2021/04/24 01:39:52;;;;;;;3.30;1.25;;;7.50;38.60;;;;;;2188352;58;21031;-80
2021/04/24 01:42:18;;;;;;;3.83;1.27;;;7.40;38.60;;;;;;2401267;57;21026;-80
2021/04/24 01:44:44;;;;;;;2.40;1.02;;;7.40;38.70;;;;;;2188734;58;21406;-80
2021/04/24 01:47:10;;;;;;;4.07;1.15;;;7.40;38.80;;;;;;2401511;57;21003;-80
2021/04/24 01:49:36;;;;;;;3.45;1.25;;;7.30;38.70;;;;;;2399827;57;20948;-80
2021/04/24 01:52:03;;;;;;;4.40;1.20;;;7.30;38.70;;;;;;2400920;57;20975;-80
2021/04/24 01:54:29;;;;;;;2.90;1.15;;;7.30;38.80;;;;;;2401644;57;21054;-80
2021/04/24 01:56:59;;;;;;;2.62;1.12;;;7.30;38.90;;;;;;2401714;57;20967;-80
2021/04/24 01:59:26;;;;;;;2.67;1.15;;;7.30;39.00;;;;;;2401461;57;21090;-80
2021/04/24 02:01:53;;;;;;;3.40;1.30;;;7.20;39.00;;;;;;2402097;57;20986;-80
2021/04/24 02:04:20;;;;;;;3.92;1.50;;;7.20;39.00;;;;;;2187769;58;20979;-80
2021/04/24 02:06:46;;;;;;;3.20;1.20;;;7.20;39.10;;;;;;2402045;57;21019;-80
2021/04/24 02:09:14;;;;;;;4.55;1.42;;;7.20;39.20;;;;;;2401746;57;21101;-80
2021/04/24 02:12:08;;;;;;;3.45;1.20;;;7.10;39.20;;;;;;2188612;58;20946;-79
2021/04/24 02:14:45;;;;;;;2.90;1.05;;;7.10;39.50;;;;;;2401601;57;21071;-80
2021/04/24 02:17:14;;;;;;;3.42;1.10;;;7.10;39.50;;;;;;2400987;57;20977;-80
2021/04/24 02:19:41;;;;;;;3.75;1.33;;;7.10;39.30;;;;;;2401771;57;20974;-80
2021/04/24 02:22:08;;;;;;;3.15;1.20;;;7.00;39.40;;;;;;2188671;58;20978;-79
2021/04/24 02:24:45;;;;;;;3.50;1.40;;;7.00;39.50;;;;;;2401280;57;20970;-79
2021/04/24 02:27:12;;;;;;;2.97;1.17;;;7.00;39.60;;;;;;2401995;57;20970;-79
2021/04/24 02:29:42;;;;;;;3.08;1.17;;;7.00;39.60;;;;;;2188478;58;21007;-80
2021/04/24 02:32:09;;;;;;;4.20;1.55;;;6.90;39.60;;;;;;2402188;57;20995;-80
2021/04/24 02:34:40;;;;;;;3.80;1.40;;;6.90;39.60;;;;;;2401873;57;21021;-80
2021/04/24 02:37:07;;;;;;;3.35;1.35;;;6.90;39.70;;;;;;2401367;57;20970;-80
2021/04/24 02:39:35;;;;;;;4.18;1.48;;;6.90;39.70;;;;;;2402061;57;21057;-80
2021/04/24 02:42:03;;;;;;;4.95;1.35;;;6.80;39.80;;;;;;2403288;57;21824;-80
2021/04/24 02:44:30;;;;;;;4.47;1.48;;;6.80;39.80;;;;;;2388758;57;21022;-80
2021/04/24 02:46:59;;;;;;;3.53;1.40;;;6.80;39.80;;;;;;2401866;57;20967;-80
2021/04/24 02:49:25;;;;;;;4.55;1.95;;;6.80;40.00;;;;;;2402239;57;20974;-80
2021/04/24 02:51:52;;;;;;;3.33;1.33;;;6.70;39.80;;;;;;2402136;57;21010;-79
2021/04/24 02:54:19;;;;;;;4.43;1.40;;;6.70;39.90;;;;;;2188513;58;20990;-79
2021/04/24 02:56:45;;;;;;;1.95;0.90;;;6.70;39.90;;;;;;2402019;57;21046;-80
2021/04/24 02:59:11;;;;;;;3.40;1.60;;;6.70;39.90;;;;;;2402124;57;20958;-80
2021/04/24 03:01:38;;;;;;;2.53;1.23;;;6.70;40.00;;;;;;2402813;57;21052;-80
2021/04/24 03:04:05;;;;;;;3.05;1.30;;;6.30;39.70;;;;;;2191328;58;20974;-79
2021/04/24 03:06:40;;;;;;;3.72;1.73;;;6.60;40.10;;;;;;2402287;56;20958;-80
2021/04/24 03:09:07;;;;;;;4.62;1.80;;;6.60;40.10;;;;;;2193090;58;21019;-79
2021/04/24 03:11:34;;;;;;;4.05;1.70;;;6.50;40.20;;;;;;2403211;56;21304;-80
2021/04/24 03:14:04;;;;;;;5.18;1.90;;;6.50;40.30;;;;;;2188276;58;21039;-80
2021/04/24 03:16:42;;;;;;;4.03;1.75;;;6.50;40.40;;;;;;2188818;58;21542;-79
2021/04/24 03:19:29;;;;;;;3.25;1.60;;;6.50;40.50;;;;;;2402451;56;20998;-79
2021/04/24 03:22:19;;;;;;;3.35;1.48;;;6.50;40.60;;;;;;2189753;58;21545;-80
2021/04/24 03:24:45;;;;;;;3.37;1.45;;;6.50;40.50;;;;;;2403423;57;21074;-79
2021/04/24 03:27:12;;;;;;;4.25;1.75;;;6.50;40.60;;;;;;2190248;57;21011;-80
2021/04/24 03:29:54;;;;;;;4.65;1.50;;;6.40;40.60;;;;;;2403365;57;21017;-79
2021/04/24 03:32:29;;;;;;;3.12;1.50;;;6.40;40.80;;;;;;2401716;57;21053;-79
2021/04/24 03:35:01;;;;;;;3.30;1.70;;;6.40;40.80;;;;;;2192538;58;21810;-80
2021/04/24 03:37:28;;;;;;;4.22;1.67;;;6.40;40.80;;;;;;2187623;58;21015;-79
2021/04/24 03:40:25;;;;;;;4.82;1.73;;;6.40;41.00;;;;;;2401888;57;21829;-79
2021/04/24 03:43:19;;;;;;;5.10;1.67;;;6.40;41.00;;;;;;2402122;57;20958;-80
2021/04/24 03:45:45;;;;;;;4.18;1.40;;;6.40;41.00;;;;;;2190506;58;20995;-80
2021/04/24 03:48:32;;;;;;;2.90;1.30;;;6.30;41.40;;;;;;2401603;57;20993;-79
2021/04/24 03:51:23;;;;;;;4.25;1.42;;;6.30;40.90;;;;;;2400907;57;21045;-80
2021/04/24 03:55:09;;;;;;;;;;;;;;;;;;;;;
2021/04/24 04:54:00;;;;;;;;;;;;;;;;;;;;;
2021/04/24 05:07:49;;;;;;;6.43;3.00;;;5.70;41.40;;;;;;2425485;56;20997;-80
2021/04/24 05:46:44;;;;;;;5.85;2.40;;;5.70;41.80;;;;;;2357691;56;21633;-81
2021/04/24 05:49:10;;;;;;;;;;;5.80;41.90;;;;;;2405279;57;21002;-80
2021/04/24 05:51:39;;;;;;;4.70;2.12;;;6.30;42.10;;;;;;2401397;57;20105;-80
2021/04/24 05:54:06;;;;;;;5.10;2.20;;;6.40;41.90;;;;;;2400773;57;21022;-79
2021/04/24 05:56:33;;;;;;;4.05;1.90;;;6.40;42.40;;;;;;2400992;57;20970;-80
2021/04/24 05:58:59;;;;;;;4.87;2.10;;;6.50;42.70;;;;;;2187902;58;20962;-79
2021/04/24 06:01:25;;;;;;;3.87;1.95;;;6.60;43.00;;;;;;2401214;57;20939;-79
2021/04/24 06:03:54;;;;;;;4.07;2.00;;;6.60;43.10;;;;;;2401723;57;21927;-79
2021/04/24 06:06:21;;;;;;;5.62;2.33;;;6.70;43.50;;;;;;2190370;58;21102;-79
2021/04/24 06:08:47;;;;;;;4.62;2.10;;;6.80;43.60;;;;;;2398327;57;20950;-80
2021/04/24 06:11:14;;;;;;;4.10;1.92;;;6.90;43.70;;;;;;2188123;58;20966;-80
2021/04/24 06:13:40;;;;;;;5.00;2.17;;;7.10;43.90;;;;;;2401051;57;21038;-80
2021/04/24 06:16:07;;;;;;;4.45;2.10;;;7.20;44.00;;;;;;2400982;57;21024;-79
2021/04/24 06:18:33;;;;;;;5.03;2.20;;;7.30;44.10;;;;;;2401198;57;21078;-79
2021/04/24 06:20:59;;;;;;;5.65;2.17;;;7.40;44.10;;;;;;2400813;57;21043;-80
2021/04/24 06:23:25;;;;;;;4.53;2.25;;;7.50;44.10;;;;;;2188091;58;21833;-80
2021/04/24 06:25:52;;;;;;;5.18;2.70;;;7.70;44.20;;;;;;2392595;57;21062;-79
2021/04/24 06:28:18;;;;;;;7.22;3.05;;;7.80;44.30;;;;;;2400582;57;21006;-80
2021/04/24 06:30:44;;;;;;;7.65;3.05;;;7.90;44.30;;;;;;2401318;57;20939;-80
2021/04/24 06:33:10;;;;;;;7.95;3.28;;;8.10;44.40;;;;;;2400312;57;20978;-80
2021/04/24 06:35:37;;;;;;;6.03;2.95;;;8.20;44.40;;;;;;2400922;57;21081;-80
2021/04/24 06:38:03;;;;;;;6.40;2.72;;;8.40;44.60;;;;;;2400936;57;20955;-80
2021/04/24 06:40:29;;;;;;;5.30;2.42;;;8.50;44.80;;;;;;2400299;57;20998;-80
2021/04/24 06:42:55;;;;;;;6.32;2.40;;;8.60;44.70;;;;;;2187949;58;21014;-80
2021/04/24 06:45:21;;;;;;;6.78;2.42;;;8.80;44.80;;;;;;2401680;57;20978;-80
2021/04/24 06:48:04;;;;;;;6.57;2.85;;;8.90;44.70;;;;;;2399476;57;20999;-80
2021/04/24 07:10:19;;;;;;;10.98;3.60;;;9.60;46.00;;;;;;2344527;57;21075;-80
2021/04/24 08:29:25;;;;;;;4.55;2.05;;;20.20;40.30;;;;;;2155104;59;21024;-81
2021/04/24 08:33:09;;;;;;;4.70;2.72;;;19.90;41.90;;;;;;2401077;57;21124;-81
2021/04/24 08:35:40;;;;;;;6.00;2.60;;;20.30;41.70;;;;;;2379867;57;21494;-81
2021/04/24 08:38:45;;;;;;;4.70;2.60;;;20.70;42.30;;;;;;2182821;58;21584;-81
2021/04/24 08:41:12;;;;;;;4.70;2.42;;;20.90;40.70;;;;;;2191305;58;21805;-81
2021/04/24 08:43:39;;;;;;;5.70;2.67;;;21.10;41.00;;;;;;2401283;57;21004;-81
2021/04/24 08:46:08;;;;;;;6.57;3.17;;;21.30;40.60;;;;;;2389330;56;21103;-81
2021/04/24 08:49:07;;;;;;;5.80;2.65;;;21.40;40.00;;;;;;2186725;58;21040;-81
2021/04/24 08:51:42;;;;;;;5.35;3.00;;;21.50;38.70;;;;;;2191164;58;20946;-81
2021/04/24 08:54:15;;;;;;;5.53;2.95;;;21.50;38.90;;;;;;2170697;58;20997;-81
2021/04/24 08:57:03;;;;;;;4.57;2.65;;;21.50;38.90;;;;;;2398344;56;21114;-81
2021/04/24 08:59:44;;;;;;;4.70;2.47;;;21.60;38.00;;;;;;2400427;57;21998;-81
2021/04/24 09:02:26;;;;;;;6.03;2.87;;;21.70;38.90;;;;;;2191193;58;20955;-81
2021/04/24 09:04:55;;;;;;;4.85;2.55;;;21.80;37.70;;;;;;2400998;57;20967;-81
2021/04/24 09:08:10;;;;;;;5.15;3.00;;;21.90;38.10;;;;;;2401041;57;20999;-81
2021/04/24 09:12:48;;;;;;;5.35;2.62;;;21.90;37.70;;;;;;2365579;57;21859;-81
2021/04/24 09:15:39;;;;;;;5.30;2.58;;;22.10;38.00;;;;;;2192701;58;20983;-82
2021/04/24 09:18:41;;;;;;;;;;;;;;;;;;;;;
2021/04/24 09:22:55;;;;;;;9.77;3.10;;;22.50;38.90;;;;;;2400543;56;21908;-81
2021/04/24 09:25:51;;;;;;;5.37;2.12;;;22.90;38.60;;;;;;2390757;55;21003;-82
2021/04/24 09:28:51;;;;;;;4.60;2.55;;;23.20;37.70;;;;;;2183496;58;21006;-81
2021/04/24 09:31:43;;;;;;;4.68;2.25;;;23.30;36.90;;;;;;2194491;58;21093;-81
2021/04/24 09:53:52;;;;;;;;;;;;;;;;;;;;;
2021/04/24 09:56:50;;;;;;;;;;;;;;;;;;;;;
2021/04/24 10:00:10;;;;;;;6.90;3.33;;;23.40;35.10;;;;;;2401714;56;20991;-81
2021/04/24 10:18:40;;;;;;;6.12;2.83;;;23.20;34.50;;;;;;2398370;56;21596;-82
2021/04/24 10:21:16;;;;;;;4.32;2.45;;;23.10;36.00;;;;;;2396411;57;21840;-82
2021/04/24 10:24:00;;;;;;;7.30;3.47;;;23.60;36.30;;;;;;2189001;58;20970;-83
2021/04/24 10:26:50;;;;;;;6.62;2.70;;;23.70;35.10;;;;;;2399036;57;20982;-82
2021/04/24 10:33:15;;;;;;;6.97;3.33;;;23.90;34.70;;;;;;2392369;57;21071;-82
2021/04/24 10:36:16;;;;;;;6.05;3.03;;;24.10;35.60;;;;;;2401001;57;21042;-82
2021/04/24 10:39:04;;;;;;;5.50;3.12;;;24.20;35.70;;;;;;2188140;58;20970;-82
2021/04/24 10:42:37;;;;;;;6.65;3.37;;;24.40;35.90;;;;;;2398816;57;20999;-82
2021/04/24 10:45:07;;;;;;;6.03;3.40;;;24.60;35.30;;;;;;2191170;58;21003;-83
2021/04/24 10:47:53;;;;;;;6.22;3.80;;;24.90;35.90;;;;;;2400704;57;20962;-82
2021/04/24 10:50:45;;;;;;;6.43;3.45;;;25.20;34.60;;;;;;2401133;57;20983;-82
2021/04/24 10:53:44;;;;;;;7.13;3.73;;;25.40;34.80;;;;;;2401046;57;20974;-82
2021/04/24 10:56:12;;;;;;;6.62;3.50;;;25.70;33.70;;;;;;2187784;58;21992;-82
2021/04/24 10:58:38;;;;;;;6.70;3.85;;;25.70;33.70;;;;;;2188045;58;20963;-83
2021/04/24 11:01:08;;;;;;;8.60;4.18;;;25.80;33.10;;;;;;2401711;57;20978;-82
2021/04/24 11:03:51;;;;;;;5.65;3.22;;;25.90;32.70;;;;;;2188214;58;21129;-82
2021/04/24 11:06:22;;;;;;;7.20;3.53;;;25.90;32.10;;;;;;2401227;57;21022;-82
2021/04/24 11:08:52;;;;;;;6.07;3.65;;;25.90;32.40;;;;;;2401377;57;22170;-82
2021/04/24 11:11:21;;;;;;;7.43;3.55;;;26.00;32.40;;;;;;2400329;57;20982;-82
2021/04/24 11:13:54;;;;;;;5.55;3.33;;;26.00;32.20;;;;;;2400791;57;21024;-82
2021/04/24 11:16:21;;;;;;;10.23;4.12;;;26.00;32.20;;;;;;2187939;58;21465;-82
2021/04/24 11:18:49;;;;;;;6.78;3.83;;;26.20;32.40;;;;;;2188417;58;20974;-82
2021/04/24 11:21:33;;;;;;;6.87;3.55;;;26.20;32.40;;;;;;2188236;58;20974;-82
2021/04/24 11:24:01;;;;;;;6.70;3.33;;;26.30;31.30;;;;;;2401930;57;21858;-82
2021/04/24 11:27:09;;;;;;;9.23;3.70;;;26.30;31.40;;;;;;2186693;58;22010;-82
2021/04/24 11:29:36;;;;;;;8.18;3.85;;;26.40;30.70;;;;;;2401460;57;21050;-82
2021/04/24 11:32:09;;;;;;;6.68;3.75;;;26.40;30.90;;;;;;2401552;57;20990;-83
2021/04/24 11:34:47;;;;;;;10.60;3.90;;;26.30;30.10;;;;;;2401366;57;20951;-82
2021/04/24 11:37:34;;;;;;;7.00;3.80;;;26.30;29.90;;;;;;2401419;57;20980;-83
2021/04/24 11:40:28;;;;;;;7.43;3.42;;;26.30;30.00;;;;;;2401047;57;21086;-82
2021/04/24 11:43:05;;;;;;;6.00;3.53;;;26.30;30.40;;;;;;2401346;57;20990;-82
2021/04/24 11:45:54;;;;;;;5.00;3.15;;;26.40;30.00;;;;;;2401459;57;20959;-82
2021/04/24 11:49:12;;;;;;;5.82;3.25;;;26.40;30.00;;;;;;2401499;57;20990;-82
2021/04/24 11:51:43;;;;;;;5.60;2.97;;;26.40;30.00;;;;;;2188010;58;21082;-82
2021/04/24 11:54:27;;;;;;;5.40;2.83;;;26.50;30.20;;;;;;2401211;57;21478;-82
2021/04/24 11:56:55;;;;;;;6.90;3.53;;;26.60;29.90;;;;;;2401365;57;22178;-82
2021/04/24 11:59:23;;;;;;;6.25;3.50;;;26.60;29.70;;;;;;2401142;57;21432;-82
2021/04/24 12:01:59;;;;;;;8.50;3.62;;;26.60;29.30;;;;;;2401336;57;20947;-82
2021/04/24 12:04:35;;;;;;;6.90;3.42;;;26.60;29.30;;;;;;2188164;58;21002;-82
2021/04/24 12:07:12;;;;;;;5.78;3.45;;;26.50;29.00;;;;;;2401257;57;21470;-81
2021/04/24 12:10:01;;;;;;;9.60;3.80;;;26.50;29.10;;;;;;2401044;57;21014;-82
2021/04/24 12:12:38;;;;;;;6.00;2.97;;;26.50;29.20;;;;;;2399711;57;21039;-81
2021/04/24 12:15:24;;;;;;;7.50;3.42;;;26.60;29.40;;;;;;2401397;57;21009;-82
2021/04/24 12:18:31;;;;;;;6.03;3.65;;;26.70;29.20;;;;;;2401348;57;20958;-82
2021/04/24 12:20:57;;;;;;;7.57;3.08;;;27.00;29.50;;;;;;2401808;57;21449;-82
2021/04/24 12:23:23;;;;;;;7.00;4.05;;;26.90;29.60;;;;;;2190549;58;21345;-81
2021/04/24 12:25:50;;;;;;;7.37;3.80;;;27.00;29.30;;;;;;2400605;57;21002;-81
2021/04/24 12:28:19;;;;;;;8.00;3.95;;;27.10;29.30;;;;;;2376824;57;20978;-82
2021/04/24 12:30:47;;;;;;;5.72;3.20;;;27.20;29.40;;;;;;2400896;57;21041;-81
2021/04/24 12:33:23;;;;;;;6.53;3.78;;;27.40;29.30;;;;;;2401004;57;21010;-80
2021/04/24 12:35:53;;;;;;;5.57;2.95;;;27.50;29.00;;;;;;2190132;58;21531;-80
2021/04/24 12:38:26;;;;;;;5.93;3.15;;;27.60;28.70;;;;;;2173881;58;20991;-81
2021/04/24 12:40:57;;;;;;;6.25;2.90;;;27.70;28.40;;;;;;2400661;57;21042;-80
2021/04/24 12:43:31;;;;;;;5.53;3.10;;;27.70;28.40;;;;;;2400864;57;20959;-81
2021/04/24 12:45:58;;;;;;;5.25;2.67;;;27.80;28.20;;;;;;2402055;57;20998;-80
2021/04/24 12:48:38;;;;;;;4.60;2.67;;;27.90;28.10;;;;;;2401383;57;20954;-80
2021/04/24 12:51:05;;;;;;;5.45;2.90;;;28.00;27.80;;;;;;2401415;57;21042;-81
2021/04/24 12:53:38;;;;;;;5.40;2.92;;;28.10;27.80;;;;;;2401436;57;21019;-81
2021/04/24 12:56:26;;;;;;;5.05;2.80;;;28.10;27.50;;;;;;2187066;58;21077;-80
2021/04/24 12:58:56;;;;;;;6.30;2.58;;;28.10;26.60;;;;;;2400879;57;21082;-80
2021/04/24 13:01:23;;;;;;;5.25;3.22;;;28.20;27.00;;;;;;2400851;57;21048;-80
2021/04/24 13:03:50;;;;;;;5.32;2.85;;;28.10;26.70;;;;;;2187308;58;20959;-81
2021/04/24 13:06:23;;;;;;;5.03;2.72;;;28.10;26.40;;;;;;2170527;58;20982;-81
2021/04/24 13:09:09;;;;;;;4.80;2.42;;;28.00;25.80;;;;;;2195033;58;20979;-80
2021/04/24 13:11:49;;;;;;;7.10;2.55;;;27.90;25.80;;;;;;2400380;57;20950;-81
2021/04/24 13:14:19;;;;;;;6.70;2.70;;;27.70;25.80;;;;;;2400452;57;21007;-81
2021/04/24 13:16:45;;;;;;;6.37;3.30;;;27.80;26.20;;;;;;2401113;57;20962;-81
2021/04/24 13:19:15;;;;;;;6.05;2.87;;;27.60;26.30;;;;;;2401478;57;20951;-82
2021/04/24 13:21:43;;;;;;;6.05;3.30;;;27.50;26.00;;;;;;2187308;58;21049;-81
2021/04/24 13:24:20;;;;;;;5.90;3.03;;;27.50;26.00;;;;;;2401222;57;20970;-81
2021/04/24 13:27:22;;;;;;;4.03;2.22;;;27.50;26.00;;;;;;2187634;58;21109;-81
2021/04/24 13:29:48;;;;;;;4.87;2.40;;;27.40;25.80;;;;;;2190968;58;21040;-82
2021/04/24 13:32:15;;;;;;;5.87;2.67;;;27.50;26.10;;;;;;2400692;57;21033;-81
2021/04/24 13:34:42;;;;;;;6.18;3.00;;;27.40;26.10;;;;;;2190620;58;20974;-81
2021/04/24 13:37:31;;;;;;;4.85;2.12;;;27.40;25.80;;;;;;2187017;58;20994;-81
2021/04/24 13:40:00;;;;;;;7.93;2.80;;;27.40;25.20;;;;;;2401171;57;20971;-81
2021/04/24 13:42:40;;;;;;;5.55;2.30;;;27.30;25.40;;;;;;2400611;57;21043;-81
2021/04/24 13:45:21;;;;;;;5.22;2.00;;;27.30;24.80;;;;;;2396869;57;22068;-82
2021/04/24 13:49:16;;;;;;;4.68;1.92;;;27.20;24.90;;;;;;2187502;58;20959;-81
2021/04/24 13:51:42;;;;;;;3.60;1.80;;;27.20;25.70;;;;;;2401745;57;20970;-81
2021/04/24 13:54:12;;;;;;;4.20;1.85;;;27.20;25.60;;;;;;2190380;58;20959;-83
2021/04/24 13:56:38;;;;;;;4.75;2.20;;;27.20;25.20;;;;;;2400734;57;20982;-82
2021/04/24 13:59:08;;;;;;;3.45;1.85;;;27.20;25.30;;;;;;2188185;58;21077;-82
2021/04/24 14:01:35;;;;;;;3.70;2.05;;;27.20;25.30;;;;;;2190841;58;20983;-81
2021/04/24 14:04:01;;;;;;;4.55;2.10;;;27.20;25.00;;;;;;2400733;57;20970;-82
2021/04/24 14:06:28;;;;;;;4.22;1.80;;;27.30;25.00;;;;;;2401162;57;20985;-81
2021/04/24 14:08:54;;;;;;;4.65;1.92;;;27.30;24.90;;;;;;2401091;57;21054;-81
2021/04/24 14:11:21;;;;;;;3.75;2.10;;;27.30;24.70;;;;;;2401291;57;20982;-81
2021/04/24 14:13:47;;;;;;;4.55;2.05;;;27.30;24.80;;;;;;2401046;57;20967;-81
2021/04/24 14:16:14;;;;;;;5.07;2.17;;;27.30;24.70;;;;;;2400866;57;21039;-81
2021/04/24 14:18:41;;;;;;;5.68;2.40;;;27.30;24.80;;;;;;2400445;57;20936;-82
2021/04/24 14:21:07;;;;;;;4.32;2.10;;;27.30;24.70;;;;;;2401131;57;20952;-81
2021/04/24 14:23:43;;;;;;;5.35;2.08;;;27.30;24.60;;;;;;2401185;57;21018;-81
2021/04/24 14:26:09;;;;;;;4.37;2.15;;;27.30;24.50;;;;;;2401347;57;21062;-81
2021/04/24 14:28:36;;;;;;;5.00;2.03;;;27.30;24.50;;;;;;2189872;58;21042;-81
2021/04/24 14:31:02;;;;;;;3.60;1.90;;;27.30;24.40;;;;;;2400090;57;21330;-82
2021/04/24 14:33:28;;;;;;;4.53;2.22;;;27.20;24.20;;;;;;2401741;57;21019;-81
2021/04/24 14:35:57;;;;;;;5.00;2.67;;;27.20;24.20;;;;;;2187817;58;21797;-81
2021/04/24 14:38:23;;;;;;;4.20;1.75;;;27.20;24.20;;;;;;2190350;58;21048;-81
2021/04/24 14:40:50;;;;;;;5.60;2.30;;;27.20;24.30;;;;;;2400272;57;21083;-81
2021/04/24 14:43:17;;;;;;;5.22;2.60;;;27.20;24.30;;;;;;2398977;57;21859;-82
2021/04/24 14:45:48;;;;;;;3.40;2.00;;;27.20;24.40;;;;;;2188610;58;21081;-82
2021/04/24 14:48:15;;;;;;;5.18;2.17;;;27.20;24.40;;;;;;2190789;58;21038;-81
2021/04/24 14:50:43;;;;;;;4.20;2.40;;;27.20;24.10;;;;;;2192148;58;21542;-82
2021/04/24 14:53:10;;;;;;;4.78;2.47;;;27.20;24.10;;;;;;2400720;57;20966;-82
2021/04/24 14:55:36;;;;;;;5.75;2.53;;;27.20;24.10;;;;;;2191346;58;20986;-81
2021/04/24 14:58:04;;;;;;;6.18;2.35;;;27.20;24.20;;;;;;2377838;57;21032;-82
2021/04/24 15:00:38;;;;;;;5.80;2.60;;;27.10;24.10;;;;;;2400845;57;20939;-82
2021/04/24 15:03:26;;;;;;;4.35;2.47;;;27.20;24.00;;;;;;2377900;57;20966;-81
2021/04/24 15:06:02;;;;;;;4.30;2.20;;;27.10;23.80;;;;;;2401979;57;20978;-82
2021/04/24 15:08:48;;;;;;;5.05;2.28;;;27.00;23.90;;;;;;2372699;57;21316;-82
2021/04/24 15:11:50;;;;;;;;;;;;;;;;;;;;;
2021/04/24 15:17:50;;;;;;;4.95;2.62;;;26.70;23.60;;;;;;2397975;56;20970;-81
2021/04/24 15:20:23;;;;;;;5.18;2.53;;;26.50;23.70;;;;;;2188374;58;21279;-81
2021/04/24 15:22:52;;;;;;;5.15;2.83;;;26.30;23.70;;;;;;2191016;58;21335;-82
2021/04/24 15:26:37;;;;;;;7.37;3.30;;;26.10;23.70;;;;;;2402655;57;21267;-82
2021/04/24 15:29:58;;;;;;;4.68;2.42;;;25.90;23.60;;;;;;2402023;57;21641;-82
2021/04/24 15:33:11;;;;;;;;;;;;;;;;;;;;;
2021/04/24 15:36:38;;;;;;;4.15;2.15;;;25.50;23.90;;;;;;2382287;57;21132;-81
2021/04/24 15:39:49;;;;;;;4.10;2.10;;;25.40;23.80;;;;;;2398933;57;21020;-82
2021/04/24 15:44:15;;;;;;;;;;;;;;;;;;;;;
2021/04/24 15:47:28;;;;;;;6.85;2.55;;;25.00;24.20;;;;;;2200161;58;20975;-81
2021/04/24 15:52:05;;;;;;;5.00;2.33;;;24.90;24.10;;;;;;2385611;57;21034;-81
2021/04/24 15:57:10;;;;;;;;;;;;;;;;;;;;;
2021/04/24 16:00:17;;;;;;;4.65;2.30;;;24.60;24.40;;;;;;2399702;56;21566;-81
2021/04/24 16:02:53;;;;;;;5.00;2.47;;;24.40;24.40;;;;;;2401389;57;20995;-81
2021/04/24 16:05:47;;;;;;;5.75;3.25;;;24.40;24.40;;;;;;2398981;56;21032;-81
2021/04/24 16:11:38;;;;;;;5.40;2.50;;;24.30;24.50;;;;;;2397283;56;21804;-81
2021/04/24 16:15:19;;;;;;;5.75;2.62;;;24.20;24.20;;;;;;2197544;57;21024;-81
2021/04/24 16:31:02;;;;;;;7.65;3.00;;;24.00;24.30;;;;;;2399989;56;21095;-81
2021/04/24 17:13:00;;;;;;;4.80;2.47;;;23.20;25.10;;;;;;2358098;57;21067;-81
2021/04/24 17:15:55;;;;;;;5.22;2.65;;;23.20;25.10;;;;;;2183314;58;20983;-82
2021/04/24 17:19:22;;;;;;;5.68;2.75;;;22.90;25.40;;;;;;2400140;57;21012;-82
2021/04/24 17:23:06;;;;;;;;;;;;;;;;;;;;;
2021/04/24 17:26:43;;;;;;;5.15;2.95;;;22.70;25.30;;;;;;2327058;58;21995;-82
2021/04/24 17:29:46;;;;;;;6.30;3.70;;;22.70;25.40;;;;;;2317549;58;21011;-81
2021/04/24 17:33:36;;;;;;;;;;;;;;;;;;;;;
2021/04/24 17:36:08;;;;;;;4.60;2.78;;;22.50;25.40;;;;;;2283653;59;21056;-81
2021/04/24 17:39:32;;;;;;;;;;;;;;;;;;;;;
2021/04/24 17:42:20;;;;;;;;;;;22.40;25.60;;;;;;2306317;59;21074;-82
2021/04/24 17:45:20;;;;;;;;;;;;;;;;;;;;;
2021/04/24 17:51:37;;;;;;;;;;;;;;;;;;;;;
2021/04/24 18:03:41;;;;;;;4.07;1.85;;;22.00;25.80;;;;;;2397274;57;20960;-81
2021/04/24 18:17:59;;;;;;;3.67;1.70;;;21.40;26.00;;;;;;2399865;56;21579;-82
2021/04/24 18:20:36;;;;;;;4.40;1.95;;;21.30;26.10;;;;;;2399924;56;21003;-81
2021/04/24 18:23:18;;;;;;;5.55;2.10;;;20.90;26.10;;;;;;2398788;57;20966;-81
2021/04/24 18:25:46;;;;;;;3.70;1.85;;;21.00;26.40;;;;;;2397885;56;21171;-81
2021/04/24 18:28:24;;;;;;;4.97;2.60;;;20.90;26.30;;;;;;2193595;58;21022;-81
2021/04/24 18:30:56;;;;;;;4.72;1.98;;;20.80;26.40;;;;;;2377130;57;21006;-81
2021/04/24 18:33:29;;;;;;;3.60;1.87;;;20.40;26.30;;;;;;2187730;58;21097;-81
2021/04/24 18:36:07;;;;;;;4.23;1.80;;;20.50;26.60;;;;;;2400183;57;21054;-81
2021/04/24 18:38:36;;;;;;;3.65;1.75;;;20.30;26.50;;;;;;2398677;57;21276;-81
2021/04/24 18:41:08;;;;;;;4.30;2.00;;;20.20;26.40;;;;;;2189678;58;21095;-81
2021/04/24 18:43:34;;;;;;;4.47;1.83;;;20.10;26.60;;;;;;2188324;58;21959;-80
2021/04/24 18:46:01;;;;;;;3.70;1.83;;;19.90;26.60;;;;;;2186298;58;21121;-80
2021/04/24 18:48:27;;;;;;;5.22;1.70;;;19.80;26.60;;;;;;2401460;57;21104;-81
2021/04/24 18:50:53;;;;;;;5.37;2.10;;;19.70;26.70;;;;;;2400870;57;20979;-80
2021/04/24 18:53:23;;;;;;;5.55;1.70;;;19.50;26.70;;;;;;2402087;57;21003;-80
2021/04/24 18:55:52;;;;;;;4.78;1.75;;;19.40;27.30;;;;;;2190240;58;21038;-80
2021/04/24 18:58:22;;;;;;;3.62;1.85;;;19.20;26.90;;;;;;2401998;57;20962;-80
2021/04/24 19:00:58;;;;;;;4.07;2.15;;;19.00;27.00;;;;;;2401286;57;21050;-81
2021/04/24 19:03:27;;;;;;;3.75;1.70;;;18.90;27.00;;;;;;2402063;57;20986;-80
2021/04/24 19:05:56;;;;;;;5.15;2.37;;;18.80;27.00;;;;;;2199445;58;21011;-80
2021/04/24 19:08:28;;;;;;;5.53;2.25;;;18.60;27.10;;;;;;2388678;57;21003;-81
2021/04/24 19:11:02;;;;;;;4.57;2.28;;;18.50;27.20;;;;;;2400806;57;21159;-80
2021/04/24 19:13:29;;;;;;;5.32;2.70;;;18.40;27.30;;;;;;2164950;58;21058;-80
2021/04/24 19:15:55;;;;;;;5.07;2.03;;;18.20;27.30;;;;;;2179250;58;20962;-80
2021/04/24 19:18:27;;;;;;;3.83;2.10;;;18.10;27.40;;;;;;2188756;58;21504;-80
2021/04/24 19:20:56;;;;;;;4.37;1.90;;;18.00;27.50;;;;;;2402434;57;20994;-80
2021/04/24 19:23:22;;;;;;;4.22;2.10;;;17.90;27.40;;;;;;2192160;57;20979;-80
2021/04/24 19:25:52;;;;;;;5.22;2.40;;;17.80;27.50;;;;;;2193334;58;20988;-80
2021/04/24 19:28:37;;;;;;;6.28;2.30;;;17.50;27.50;;;;;;2391855;57;20991;-80
2021/04/24 19:31:09;;;;;;;3.72;1.98;;;17.60;27.70;;;;;;2397064;56;21587;-80